createdAt,value
2022-11-12T00:01:08.046Z,51.25
2022-11-12T00:03:36.413Z,51.25
2022-11-12T00:06:04.720Z,51.35
2022-11-12T00:08:31.953Z,51.38
2022-11-12T00:10:58.356Z,51.54
2022-11-12T00:13:27.502Z,51.49
2022-11-12T00:15:54.731Z,51.29
2022-11-12T00:18:21.958Z,51.46
2022-11-12T00:20:48.415Z,51.59
2022-11-12T00:23:14.800Z,51.52
2022-11-12T00:25:41.266Z,51.51
2022-11-12T00:28:07.662Z,51.88
2022-11-12T00:30:34.017Z,51.97
2022-11-12T00:33:00.345Z,52.05
2022-11-12T00:35:26.671Z,52.33
2022-11-12T00:37:53.104Z,52.38
2022-11-12T00:40:20.303Z,52.67
2022-11-12T00:42:46.632Z,52.79
2022-11-12T00:45:12.977Z,53.03
2022-11-12T00:47:39.304Z,53.08
2022-11-12T00:50:05.732Z,53.04
2022-11-12T00:52:32.069Z,52.98
2022-11-12T00:54:58.410Z,53.25
2022-11-12T00:57:24.801Z,53.18
2022-11-12T00:59:51.131Z,53.40
2022-11-12T01:02:17.471Z,53.43
2022-11-12T01:04:43.812Z,53.19
2022-11-12T01:07:11.086Z,53.36
2022-11-12T01:09:37.423Z,53.98
2022-11-12T01:12:03.757Z,53.35
2022-11-12T01:14:30.109Z,53.50
2022-11-12T01:16:56.443Z,53.47
2022-11-12T01:19:22.788Z,53.71
2022-11-12T01:21:49.096Z,53.92
2022-11-12T01:24:15.432Z,53.82
2022-11-12T01:26:41.774Z,53.87
2022-11-12T01:29:08.163Z,54.00
2022-11-12T01:31:34.511Z,53.74
2022-11-12T01:34:00.844Z,54.06
2022-11-12T01:36:27.200Z,53.95
2022-11-12T01:38:53.545Z,54.04
2022-11-12T01:41:20.761Z,53.95
2022-11-12T01:43:47.175Z,53.93
2022-11-12T01:46:13.543Z,54.21
2022-11-12T01:48:39.884Z,54.00
2022-11-12T01:51:06.229Z,54.17
2022-11-12T01:53:32.565Z,53.88
2022-11-12T01:55:58.900Z,53.89
2022-11-12T01:58:25.647Z,53.96
2022-11-12T02:00:52.239Z,53.72
2022-11-12T02:03:18.663Z,53.85
2022-11-12T02:05:44.998Z,53.71
2022-11-12T02:08:12.205Z,53.62
2022-11-12T02:10:38.540Z,53.85
2022-11-12T02:13:04.883Z,53.72
2022-11-12T02:15:31.225Z,53.45
2022-11-12T02:17:57.540Z,53.41
2022-11-12T02:20:23.880Z,53.36
2022-11-12T02:22:50.206Z,53.32
2022-11-12T02:25:17.488Z,53.33
2022-11-12T02:27:43.804Z,53.41
2022-11-12T02:30:10.993Z,53.19
2022-11-12T02:32:37.332Z,53.48
2022-11-12T02:35:03.695Z,53.31
2022-11-12T02:37:30.055Z,53.22
2022-11-12T02:39:56.397Z,53.45
2022-11-12T02:42:22.812Z,53.21
2022-11-12T02:44:49.146Z,53.17
2022-11-12T02:47:15.489Z,53.11
2022-11-12T02:49:41.840Z,53.12
2022-11-12T02:52:08.189Z,53.38
2022-11-12T02:54:34.541Z,53.07
2022-11-12T02:57:00.870Z,53.11
2022-11-12T02:59:27.319Z,53.10
2022-11-12T03:01:53.635Z,53.17
2022-11-12T03:04:20.818Z,53.21
2022-11-12T03:06:47.175Z,53.20
2022-11-12T03:09:13.540Z,53.37
2022-11-12T03:11:39.869Z,53.21
2022-11-12T03:14:06.200Z,53.24
2022-11-12T03:16:32.574Z,53.41
2022-11-12T03:18:58.901Z,53.21
2022-11-12T03:21:25.242Z,52.89
2022-11-12T03:23:51.582Z,53.20
2022-11-12T03:26:17.920Z,53.02
2022-11-12T03:28:44.290Z,53.28
2022-11-12T03:31:10.606Z,53.14
2022-11-12T03:33:36.940Z,52.86
2022-11-12T03:36:03.273Z,53.06
2022-11-12T03:38:29.794Z,53.06
2022-11-12T03:40:56.373Z,52.86
2022-11-12T03:43:22.713Z,52.88
2022-11-12T03:45:49.048Z,53.02
2022-11-12T03:48:15.381Z,52.65
2022-11-12T03:50:41.687Z,52.84
2022-11-12T03:53:08.898Z,52.76
2022-11-12T03:55:35.286Z,52.55
2022-11-12T03:58:01.595Z,52.56
2022-11-12T04:00:27.933Z,53.00
2022-11-12T04:02:54.265Z,52.47
2022-11-12T04:05:20.559Z,52.52
2022-11-12T04:07:46.989Z,52.75
2022-11-12T04:10:13.313Z,52.93
2022-11-12T04:12:39.681Z,52.96
2022-11-12T04:15:06.029Z,53.20
2022-11-12T04:17:33.234Z,52.84
2022-11-12T04:19:59.584Z,53.31
2022-11-12T04:22:25.906Z,53.57
2022-11-12T04:24:52.286Z,53.72
2022-11-12T04:27:18.611Z,53.59
2022-11-12T04:29:44.981Z,53.30
2022-11-12T04:32:11.307Z,53.69
2022-11-12T04:34:37.665Z,53.58
2022-11-12T04:37:04.045Z,53.90
2022-11-12T04:39:30.396Z,53.82
2022-11-12T04:41:56.774Z,53.56
2022-11-12T04:44:23.113Z,53.94
2022-11-12T04:46:49.440Z,53.58
2022-11-12T04:49:15.764Z,53.97
2022-11-12T04:51:42.113Z,54.08
2022-11-12T04:54:09.322Z,54.37
2022-11-12T04:56:35.656Z,53.78
2022-11-12T04:59:02.038Z,53.23
2022-11-12T05:01:28.385Z,53.83
2022-11-12T05:03:54.739Z,53.85
2022-11-12T05:06:21.082Z,53.74
2022-11-12T05:08:47.403Z,53.93
2022-11-12T05:11:13.722Z,54.05
2022-11-12T05:13:40.206Z,53.67
2022-11-12T05:16:06.538Z,53.88
2022-11-12T05:18:33.730Z,53.84
2022-11-12T05:21:00.157Z,53.79
2022-11-12T05:23:26.506Z,54.08
2022-11-12T05:25:53.722Z,53.54
2022-11-12T05:28:21.974Z,53.17
2022-11-12T05:30:48.348Z,53.34
2022-11-12T05:33:14.726Z,52.96
2022-11-12T05:35:41.121Z,53.22
2022-11-12T05:38:10.384Z,53.17
2022-11-12T05:40:36.792Z,52.64
2022-11-12T05:43:05.961Z,52.70
2022-11-12T05:45:32.416Z,52.98
2022-11-12T05:47:58.834Z,52.38
2022-11-12T05:50:28.245Z,52.03
2022-11-12T05:53:04.355Z,51.84
2022-11-12T05:55:36.809Z,52.13
2022-11-12T05:58:05.405Z,51.77
2022-11-12T06:00:32.721Z,52.26
2022-11-12T06:02:59.243Z,51.84
2022-11-12T06:05:26.532Z,52.04
2022-11-12T06:07:52.917Z,51.96
2022-11-12T06:10:21.200Z,51.97
2022-11-12T06:12:47.650Z,51.95
2022-11-12T06:15:14.147Z,52.24
2022-11-12T06:17:40.605Z,52.09
2022-11-12T06:20:08.908Z,52.30
2022-11-12T06:22:35.360Z,52.14
2022-11-12T06:25:03.715Z,52.73
2022-11-12T06:27:30.951Z,52.66
2022-11-12T06:29:57.414Z,53.13
2022-11-12T06:32:24.664Z,52.80
2022-11-12T06:34:51.152Z,53.10
2022-11-12T06:37:18.398Z,53.22
2022-11-12T06:39:44.874Z,53.09
2022-11-12T06:42:12.178Z,53.31
2022-11-12T06:44:39.692Z,53.25
2022-11-12T06:47:07.036Z,53.49
2022-11-12T06:49:33.510Z,53.55
2022-11-12T06:52:00.756Z,53.24
2022-11-12T06:54:29.435Z,53.67
2022-11-12T06:56:56.772Z,53.58
2022-11-12T06:59:23.515Z,53.84
2022-11-12T07:01:50.159Z,53.97
2022-11-12T07:04:17.855Z,53.87
2022-11-12T07:06:44.556Z,53.68
2022-11-12T07:09:11.300Z,53.69
2022-11-12T07:11:37.732Z,54.14
2022-11-12T07:14:04.979Z,54.23
2022-11-12T07:16:32.367Z,53.44
2022-11-12T07:18:58.800Z,53.40
2022-11-12T07:21:26.283Z,53.38
2022-11-12T07:23:52.736Z,53.66
2022-11-12T07:26:20.081Z,53.04
2022-11-12T07:28:47.498Z,53.00
2022-11-12T07:31:13.965Z,52.99
2022-11-12T07:33:40.404Z,52.59
2022-11-12T07:36:06.873Z,52.78
2022-11-12T07:38:33.340Z,52.90
2022-11-12T07:41:00.751Z,52.58
2022-11-12T07:43:28.168Z,52.09
2022-11-12T07:45:55.536Z,52.50
2022-11-12T07:48:23.068Z,52.12
2022-11-12T07:50:49.600Z,52.12
2022-11-12T07:53:16.059Z,52.17
2022-11-12T07:55:42.535Z,52.02
2022-11-12T07:58:08.974Z,52.86
2022-11-12T08:00:36.447Z,52.11
2022-11-12T08:03:02.905Z,52.49
2022-11-12T08:05:29.425Z,52.49
2022-11-12T08:07:55.978Z,52.49
2022-11-12T08:10:22.506Z,53.24
2022-11-12T08:12:48.959Z,53.45
2022-11-12T08:15:15.430Z,53.45
2022-11-12T08:17:42.002Z,53.75
2022-11-12T08:20:08.480Z,53.69
2022-11-12T08:22:35.854Z,53.77
2022-11-12T08:25:02.336Z,54.46
2022-11-12T08:27:28.784Z,53.79
2022-11-12T08:29:55.262Z,53.70
2022-11-12T08:32:22.661Z,53.85
2022-11-12T08:34:50.121Z,53.76
2022-11-12T08:37:17.492Z,53.91
2022-11-12T08:39:44.850Z,53.56
2022-11-12T08:42:11.317Z,53.81
2022-11-12T08:44:38.644Z,53.59
2022-11-12T08:47:05.105Z,53.69
2022-11-12T08:49:31.622Z,52.90
2022-11-12T08:51:58.982Z,52.80
2022-11-12T08:54:25.414Z,53.12
2022-11-12T08:56:51.965Z,52.30
2022-11-12T08:59:19.354Z,52.34
2022-11-12T09:01:45.876Z,52.05
2022-11-12T09:04:13.261Z,52.00
2022-11-12T09:06:39.776Z,52.17
2022-11-12T09:09:06.272Z,51.65
2022-11-12T09:11:32.720Z,52.00
2022-11-12T09:13:59.222Z,51.66
2022-11-12T09:16:26.621Z,51.12
2022-11-12T09:18:54.065Z,50.96
2022-11-12T09:21:21.456Z,50.78
2022-11-12T09:23:47.893Z,50.92
2022-11-12T09:26:15.252Z,50.68
2022-11-12T09:28:41.725Z,50.56
2022-11-12T09:31:08.216Z,50.76
2022-11-12T09:33:34.667Z,50.42
2022-11-12T09:36:01.333Z,50.20
2022-11-12T09:38:28.167Z,50.59
2022-11-12T09:40:55.034Z,50.52
2022-11-12T09:43:22.437Z,50.22
2022-11-12T09:46:06.497Z,50.30
2022-11-12T09:48:35.372Z,50.26
2022-11-12T09:51:02.758Z,50.31
2022-11-12T09:53:29.316Z,49.55
2022-11-12T09:55:56.677Z,49.83
2022-11-12T09:58:23.305Z,48.37
2022-11-12T10:00:49.929Z,49.89
2022-11-12T10:03:17.343Z,49.65
2022-11-12T10:05:44.738Z,49.57
2022-11-12T10:08:12.122Z,49.60
2022-11-12T10:10:39.546Z,49.15
2022-11-12T10:13:05.999Z,49.53
2022-11-12T10:15:32.457Z,49.17
2022-11-12T10:17:59.881Z,49.16
2022-11-12T10:20:27.294Z,49.34
2022-11-12T10:22:53.809Z,49.50
2022-11-12T10:25:21.211Z,49.34
2022-11-12T10:27:47.682Z,50.28
2022-11-12T10:30:15.086Z,50.15
2022-11-12T10:32:41.544Z,50.63
2022-11-12T10:35:08.038Z,50.93
2022-11-12T10:37:34.517Z,51.19
2022-11-12T10:40:00.989Z,50.33
2022-11-12T10:42:27.469Z,50.81
2022-11-12T10:44:54.927Z,50.41
2022-11-12T10:47:22.328Z,50.48
2022-11-12T10:49:49.721Z,50.89
2022-11-12T10:52:16.182Z,50.61
2022-11-12T10:54:42.688Z,50.37
2022-11-12T10:57:09.237Z,50.26
2022-11-12T10:59:35.691Z,50.64
2022-11-12T11:02:02.170Z,50.90
2022-11-12T11:04:28.712Z,51.24
2022-11-12T11:06:56.134Z,51.27
2022-11-12T11:09:22.611Z,51.42
2022-11-12T11:11:49.096Z,51.62
2022-11-12T11:14:16.491Z,51.94
2022-11-12T11:16:43.947Z,51.68
2022-11-12T11:19:10.397Z,52.32
2022-11-12T11:21:41.786Z,52.35
2022-11-12T11:24:08.948Z,52.75
2022-11-12T11:26:36.366Z,52.79
2022-11-12T11:29:02.798Z,53.06
2022-11-12T11:31:30.179Z,53.00
2022-11-12T11:33:57.581Z,53.34
2022-11-12T11:36:24.903Z,53.07
2022-11-12T11:38:51.324Z,52.87
2022-11-12T11:41:18.700Z,53.24
2022-11-12T11:43:45.253Z,53.17
2022-11-12T11:46:11.719Z,52.98
2022-11-12T11:48:39.007Z,53.25
2022-11-12T11:51:06.426Z,53.57
2022-11-12T11:53:32.851Z,53.19
2022-11-12T11:55:59.307Z,53.18
2022-11-12T11:58:27.102Z,52.89
2022-11-12T12:00:53.682Z,52.51
2022-11-12T12:03:21.086Z,52.49
2022-11-12T12:05:47.621Z,52.46
2022-11-12T12:08:14.986Z,52.32
2022-11-12T12:11:01.720Z,53.01
2022-11-12T12:13:28.822Z,52.81
2022-11-12T12:15:56.211Z,52.89
2022-11-12T12:18:23.699Z,52.95
2022-11-12T12:20:50.247Z,52.90
2022-11-12T12:23:17.615Z,52.90
2022-11-12T12:25:44.979Z,53.00
2022-11-12T12:28:12.353Z,53.30
2022-11-12T12:30:39.805Z,53.08
2022-11-12T12:33:07.158Z,53.43
2022-11-12T12:35:33.626Z,53.96
2022-11-12T12:38:00.062Z,53.73
2022-11-12T12:40:27.752Z,53.89
2022-11-12T12:42:54.227Z,53.80
2022-11-12T12:45:21.593Z,53.74
2022-11-12T12:47:48.198Z,53.67
2022-11-12T12:50:15.607Z,53.91
2022-11-12T12:52:43.010Z,53.73
2022-11-12T12:55:10.426Z,53.53
2022-11-12T12:57:37.794Z,53.77
2022-11-12T13:00:04.296Z,53.55
2022-11-12T13:02:31.685Z,53.68
2022-11-12T13:04:58.212Z,53.71
2022-11-12T13:07:24.696Z,53.41
2022-11-12T13:09:51.467Z,53.68
2022-11-12T13:12:18.840Z,53.61
2022-11-12T13:14:45.256Z,53.67
2022-11-12T13:17:11.748Z,54.06
2022-11-12T13:19:39.101Z,53.69
2022-11-12T13:22:05.577Z,53.65
2022-11-12T13:24:32.031Z,52.63
2022-11-12T13:26:59.353Z,51.13
2022-11-12T13:29:27.717Z,51.59
2022-11-12T13:31:54.189Z,50.00
2022-11-12T13:34:21.419Z,49.78
2022-11-12T13:36:48.666Z,50.30
2022-11-12T13:39:15.091Z,51.04
2022-11-12T13:41:42.405Z,51.89
2022-11-12T13:44:09.171Z,51.95
2022-11-12T13:46:36.396Z,52.29
2022-11-12T13:49:02.885Z,52.22
2022-11-12T13:51:30.127Z,52.29
2022-11-12T13:53:56.657Z,52.17
2022-11-12T13:56:24.981Z,51.85
2022-11-12T13:58:53.261Z,52.22
2022-11-12T14:01:19.747Z,51.82
2022-11-12T14:03:46.988Z,51.80
2022-11-12T14:06:15.438Z,52.13
2022-11-12T14:08:41.855Z,51.94
2022-11-12T14:11:09.117Z,51.66
2022-11-12T14:13:37.440Z,52.14
2022-11-12T14:16:03.974Z,51.57
2022-11-12T14:18:30.442Z,51.45
2022-11-12T14:20:58.766Z,52.02
2022-11-12T14:23:25.987Z,52.18
2022-11-12T14:25:52.570Z,52.58
2022-11-12T14:28:18.982Z,52.55
2022-11-12T14:30:47.338Z,52.47
2022-11-12T14:33:13.800Z,52.61
2022-11-12T14:35:41.023Z,52.39
2022-11-12T14:38:09.847Z,52.41
2022-11-12T14:40:37.124Z,52.54
2022-11-12T14:43:04.399Z,52.33
2022-11-12T14:45:35.185Z,51.93
2022-11-12T14:48:02.858Z,50.76
2022-11-12T14:50:30.140Z,50.69
2022-11-12T14:52:56.569Z,51.32
2022-11-12T14:55:23.847Z,51.06
2022-11-12T14:57:51.110Z,51.02
2022-11-12T15:00:17.676Z,50.99
2022-11-12T15:02:55.777Z,51.50
2022-11-12T15:05:26.836Z,51.09
2022-11-12T15:07:53.302Z,51.13
2022-11-12T15:10:19.733Z,51.12
2022-11-12T15:12:47.053Z,51.09
2022-11-12T15:15:14.386Z,51.45
2022-11-12T15:17:40.832Z,51.49
2022-11-12T15:20:08.374Z,51.76
2022-11-12T15:22:34.858Z,51.53
2022-11-12T15:25:01.334Z,51.78
2022-11-12T15:27:28.735Z,51.65
2022-11-12T15:29:56.106Z,51.68
2022-11-12T15:32:22.531Z,51.85
2022-11-12T15:34:49.881Z,52.05
2022-11-12T15:37:17.509Z,51.64
2022-11-12T15:39:44.934Z,51.68
2022-11-12T15:42:12.307Z,51.89
2022-11-12T15:44:39.705Z,51.71
2022-11-12T15:47:06.176Z,51.98
2022-11-12T15:49:33.551Z,52.08
2022-11-12T15:52:00.922Z,51.95
2022-11-12T15:54:27.421Z,51.56
2022-11-12T15:56:54.797Z,51.63
2022-11-12T15:59:22.172Z,51.84
2022-11-12T16:01:49.573Z,51.75
2022-11-12T16:04:16.330Z,51.80
2022-11-12T16:06:42.879Z,52.12
2022-11-12T16:09:10.259Z,51.73
2022-11-12T16:11:37.672Z,52.15
2022-11-12T16:14:05.066Z,51.93
2022-11-12T16:18:58.856Z,52.24
2022-11-12T16:21:26.230Z,52.06
2022-11-12T16:23:52.670Z,51.90
2022-11-12T16:26:20.061Z,52.04
2022-11-12T16:28:46.546Z,51.87
2022-11-12T16:31:12.972Z,52.15
2022-11-12T16:33:40.473Z,52.42
2022-11-12T16:36:07.890Z,52.03
2022-11-12T16:38:34.320Z,52.35
2022-11-12T16:41:00.847Z,52.21
2022-11-12T16:43:28.496Z,52.18
2022-11-12T16:45:55.131Z,52.07
2022-11-12T16:48:21.592Z,52.14
2022-11-12T16:50:48.045Z,52.00
2022-11-12T16:53:14.491Z,52.02
2022-11-12T16:55:41.881Z,52.57
2022-11-12T16:58:08.467Z,52.10
2022-11-12T17:03:02.265Z,52.12
2022-11-12T17:05:29.654Z,52.28
2022-11-12T17:07:56.113Z,52.11
2022-11-12T17:12:49.091Z,52.04
2022-11-12T17:15:16.448Z,52.49
2022-11-12T17:17:42.885Z,52.12
2022-11-12T17:20:10.279Z,52.60
2022-11-12T17:22:37.631Z,52.15
2022-11-12T17:25:05.035Z,52.14
2022-11-12T17:27:31.457Z,52.58
2022-11-12T17:29:57.919Z,52.19
2022-11-12T17:32:25.316Z,52.66
2022-11-12T17:34:51.723Z,52.10
2022-11-12T17:37:19.088Z,52.57
2022-11-12T17:39:46.455Z,52.25
2022-11-12T17:42:13.843Z,52.28
2022-11-12T17:44:41.231Z,52.51
2022-11-12T17:47:09.915Z,52.69
2022-11-12T17:49:36.387Z,52.59
2022-11-12T17:52:03.755Z,52.02
2022-11-12T17:54:31.096Z,52.46
2022-11-12T17:56:58.454Z,52.36
2022-11-12T17:59:25.815Z,52.72
2022-11-12T18:01:52.255Z,52.67
2022-11-12T18:04:20.821Z,52.74
2022-11-12T18:06:49.893Z,52.57
2022-11-12T18:09:16.371Z,52.21
2022-11-12T18:11:43.730Z,52.19
2022-11-12T18:14:10.374Z,52.30
2022-11-12T18:16:36.832Z,52.12
2022-11-12T18:19:04.212Z,52.24
2022-11-12T18:21:31.618Z,52.58
2022-11-12T18:23:58.984Z,52.60
2022-11-12T18:26:26.381Z,52.48
2022-11-12T18:28:53.759Z,52.72
2022-11-12T18:31:20.210Z,52.51
2022-11-12T18:33:47.610Z,52.49
2022-11-12T18:36:14.230Z,52.45
2022-11-12T18:38:40.637Z,52.33
2022-11-12T18:41:08.012Z,52.45
2022-11-12T18:43:34.511Z,52.93
2022-11-12T18:46:00.946Z,52.32
2022-11-12T18:48:27.403Z,52.70
2022-11-12T18:50:54.828Z,52.66
2022-11-12T18:53:22.330Z,52.78
2022-11-12T18:55:48.753Z,52.45
2022-11-12T18:58:15.198Z,52.38
2022-11-12T19:00:41.717Z,52.62
2022-11-12T19:03:08.161Z,52.57
2022-11-12T19:05:34.617Z,52.56
2022-11-12T19:08:01.073Z,52.37
2022-11-12T19:10:27.554Z,52.80
2022-11-12T19:12:53.993Z,52.34
2022-11-12T19:15:26.460Z,52.76
2022-11-12T19:17:53.521Z,52.80
2022-11-12T19:20:20.866Z,52.58
2022-11-12T19:22:47.306Z,53.02
2022-11-12T19:25:13.755Z,53.51
2022-11-12T19:27:41.121Z,53.52
2022-11-12T19:30:07.565Z,53.69
2022-11-12T19:32:34.898Z,53.88
2022-11-12T19:35:01.341Z,53.59
2022-11-12T19:37:33.444Z,53.93
2022-11-12T19:40:01.379Z,54.01
2022-11-12T19:42:28.799Z,53.55
2022-11-12T19:44:55.262Z,53.72
2022-11-12T19:47:22.616Z,53.67
2022-11-12T19:49:50.088Z,53.66
2022-11-12T19:52:17.478Z,53.73
2022-11-12T19:54:44.851Z,54.11
2022-11-12T19:57:11.271Z,54.20
2022-11-12T19:59:37.882Z,54.15
2022-11-12T20:02:04.351Z,53.57
2022-11-12T20:04:31.728Z,53.89
2022-11-12T20:06:59.122Z,54.19
2022-11-12T20:09:26.535Z,53.76
2022-11-12T20:11:52.999Z,53.85
2022-11-12T20:14:19.440Z,53.67
2022-11-12T20:16:46.090Z,53.87
2022-11-12T20:19:13.465Z,53.91
2022-11-12T20:21:39.941Z,53.77
2022-11-12T20:24:06.666Z,53.41
2022-11-12T20:26:34.045Z,52.76
2022-11-12T20:29:00.500Z,52.14
2022-11-12T20:31:26.964Z,52.21
2022-11-12T20:33:53.464Z,52.36
2022-11-12T20:36:19.914Z,52.05
2022-11-12T20:38:46.540Z,53.09
2022-11-12T20:41:13.005Z,51.54
2022-11-12T20:43:39.449Z,51.00
2022-11-12T20:46:06.864Z,51.69
2022-11-12T20:48:33.336Z,51.00
2022-11-12T20:51:22.118Z,51.02
2022-11-12T20:53:46.268Z,51.14
2022-11-12T20:56:13.668Z,51.13
2022-11-12T20:58:40.159Z,50.76
2022-11-12T21:01:07.721Z,52.46
2022-11-12T21:03:34.288Z,51.44
2022-11-12T21:06:00.819Z,50.93
2022-11-12T21:08:27.445Z,50.82
2022-11-12T21:10:54.117Z,51.66
2022-11-12T21:13:21.577Z,51.58
2022-11-12T21:15:48.968Z,51.71
2022-11-12T21:20:53.240Z,51.63
2022-11-12T21:23:20.821Z,51.99
2022-11-12T21:25:48.202Z,51.00
2022-11-12T21:28:15.548Z,50.94
2022-11-12T21:30:41.985Z,51.03
2022-11-12T21:33:08.440Z,50.72
2022-11-12T21:35:34.988Z,50.85
2022-11-12T21:38:01.461Z,50.78
2022-11-12T21:40:28.084Z,50.65
2022-11-12T21:42:54.529Z,51.18
2022-11-12T21:45:20.996Z,51.75
2022-11-12T21:47:47.467Z,51.79
2022-11-12T21:50:14.884Z,51.84
2022-11-12T21:52:42.289Z,51.78
2022-11-12T21:55:08.764Z,51.56
2022-11-12T21:57:35.260Z,51.57
2022-11-12T22:00:26.482Z,51.43
2022-11-12T22:02:49.262Z,51.54
2022-11-12T22:05:16.681Z,51.96
2022-11-12T22:07:43.144Z,51.55
2022-11-12T22:10:09.640Z,51.88
2022-11-12T22:12:36.113Z,51.72
2022-11-12T22:15:02.589Z,51.55
2022-11-12T22:20:14.291Z,51.73
2022-11-12T22:22:40.785Z,51.68
2022-11-12T22:25:08.225Z,51.76
2022-11-12T22:27:34.673Z,51.90
2022-11-12T22:30:01.133Z,51.87
2022-11-12T22:35:22.539Z,51.75
2022-11-12T22:37:48.998Z,51.77
2022-11-12T22:40:15.467Z,51.86
2022-11-12T22:42:42.849Z,52.07
2022-11-12T22:45:09.332Z,51.92
2022-11-12T22:50:29.891Z,52.17
2022-11-12T22:52:56.426Z,52.24
2022-11-12T22:55:22.890Z,52.15
2022-11-12T22:57:50.275Z,52.05
2022-11-12T23:00:16.732Z,52.31
2022-11-12T23:05:27.381Z,52.46
2022-11-12T23:07:53.847Z,52.29
2022-11-12T23:10:21.266Z,52.40
2022-11-12T23:12:47.732Z,52.41
2022-11-12T23:15:15.980Z,52.30
2022-11-12T23:20:26.777Z,52.71
2022-11-12T23:22:54.180Z,52.39
2022-11-12T23:25:21.546Z,52.49
2022-11-12T23:27:48.015Z,52.45
2022-11-12T23:30:15.396Z,52.34
2022-11-12T23:35:36.096Z,52.57
2022-11-12T23:38:02.559Z,52.63
2022-11-12T23:40:31.328Z,52.54
2022-11-12T23:42:58.857Z,52.60
2022-11-12T23:45:25.316Z,52.46
2022-11-12T23:50:35.727Z,52.54
2022-11-12T23:53:02.169Z,52.73
2022-11-12T23:55:29.385Z,52.56
2022-11-12T23:57:56.016Z,52.92
